Time;durP1;ratioP1;P1;durP2;ratioP2;P2;SDS_P1;SDS_P2;PMS_P1;PMS_P2;Temp;Humidity;BMP_temperature;BMP_pressure;BME280_temperature;BME280_humidity;BME280_pressure;Samples;Min_cycle;Max_cycle;Signal;HPM_P1;HPM_P2
2023/09/03 00:00:54;;;;;;;17.30;6.10;;;;;;;19.47;61.49;101582.65;107315;1259;97937;-60
2023/09/03 00:03:42;;;;;;;26.20;6.30;;;;;;;19.43;61.47;101577.30;107255;1256;114263;-62
2023/09/03 00:06:11;;;;;;;17.80;6.30;;;;;;;19.43;61.62;101576.46;107281;1256;109875;-61
2023/09/03 00:08:39;;;;;;;21.80;6.30;;;;;;;19.42;62.02;101578.70;107279;1256;109011;-61
2023/09/03 00:11:07;;;;;;;11.90;5.50;;;;;;;19.41;62.22;101571.93;107219;1259;98488;-61
2023/09/03 00:13:36;;;;;;;18.20;5.80;;;;;;;19.41;62.22;101571.21;107137;1255;97697;-62
2023/09/03 00:16:04;;;;;;;17.90;5.60;;;;;;;19.42;62.08;101568.59;107296;1256;111935;-61
2023/09/03 00:18:32;;;;;;;13.40;4.80;;;;;;;19.41;62.02;101563.00;107321;1256;109500;-62
2023/09/03 00:21:03;;;;;;;19.60;6.00;;;;;;;19.42;62.18;101563.46;107279;1257;107824;-61
2023/09/03 00:23:32;;;;;;;12.60;4.70;;;;;;;19.41;62.29;101562.79;107271;1256;97865;-60
2023/09/03 00:26:01;;;;;;;19.30;5.70;;;;;;;19.41;62.13;101562.65;107311;1256;97861;-61
2023/09/03 00:28:30;;;;;;;30.20;5.60;;;;;;;19.43;62.23;101563.91;107319;1258;110889;-61
2023/09/03 00:31:03;;;;;;;25.10;6.60;;;;;;;19.43;62.16;101567.73;107308;1256;109020;-63
2023/09/03 00:33:32;;;;;;;20.00;6.90;;;;;;;19.42;62.26;101573.98;107240;1260;108085;-60
2023/09/03 00:36:02;;;;;;;11.30;5.30;;;;;;;19.39;62.55;101577.57;107325;1256;97928;-61
2023/09/03 00:38:31;;;;;;;21.10;6.30;;;;;;;19.36;62.54;101580.61;107322;1258;97796;-61
2023/09/03 00:40:59;;;;;;;9.30;4.80;;;;;;;19.32;62.55;101582.19;107299;1257;110879;-61
2023/09/03 00:43:28;;;;;;;18.90;5.30;;;;;;;19.26;62.67;101577.08;107344;1257;110492;-61
2023/09/03 00:45:58;;;;;;;7.80;4.20;;;;;;;19.20;62.52;101582.05;107310;1257;107399;-62
2023/09/03 00:48:28;;;;;;;7.80;3.70;;;;;;;19.18;62.47;101579.39;107118;1257;97845;-61
2023/09/03 00:51:04;;;;;;;11.60;4.60;;;;;;;19.15;62.56;101576.52;107304;1259;97721;-60
2023/09/03 00:53:34;;;;;;;7.50;4.00;;;;;;;19.13;62.49;101572.89;107225;1257;111790;-61
2023/09/03 00:56:03;;;;;;;11.80;4.30;;;;;;;19.12;62.70;101574.08;107311;1256;110071;-61
2023/09/03 00:58:34;;;;;;;11.50;4.70;;;;;;;19.09;62.53;101573.09;107286;1255;106833;-64
2023/09/03 01:01:04;;;;;;;7.90;4.30;;;;;;;19.09;62.83;101581.17;107306;1257;97921;-60
2023/09/03 01:03:32;;;;;;;10.20;4.50;;;;;;;18.97;63.58;101588.45;107380;1256;97739;-61
2023/09/03 01:06:01;;;;;;;12.20;4.60;;;;;;;18.86;63.99;101584.23;107305;1256;110629;-61
2023/09/03 01:08:31;;;;;;;18.80;5.40;;;;;;;18.81;63.50;101586.77;107389;1257;109903;-61
2023/09/03 01:11:28;;;;;;;14.90;4.90;;;;;;;18.80;64.27;101588.47;107377;1256;107476;-60
2023/09/03 01:14:13;;;;;;;15.10;5.70;;;;;;;18.68;65.48;101587.77;107278;1257;97723;-61
2023/09/03 01:17:02;;;;;;;12.70;5.70;;;;;;;18.54;65.88;101588.11;107337;1257;98561;-61
2023/09/03 01:19:30;;;;;;;16.50;5.30;;;;;;;18.47;65.94;101587.22;107348;1256;112478;-63
2023/09/03 01:22:14;;;;;;;16.10;5.80;;;;;;;18.45;65.44;101585.76;107313;1257;109847;-60
2023/09/03 01:25:06;;;;;;;12.30;5.20;;;;;;;18.53;65.65;101587.70;107327;1256;107354;-61
2023/09/03 01:28:08;;;;;;;14.00;5.10;;;;;;;18.57;65.59;101580.48;107323;1257;97825;-61
2023/09/03 01:30:37;;;;;;;11.60;5.10;;;;;;;18.61;65.54;101580.38;107038;1256;97862;-61
2023/09/03 01:33:07;;;;;;;11.70;5.90;;;;;;;18.66;65.83;101578.80;107329;1257;111904;-61
2023/09/03 01:35:36;;;;;;;11.50;6.10;;;;;;;18.70;65.94;101579.02;107239;1257;108920;-60
2023/09/03 01:38:05;;;;;;;9.20;5.50;;;;;;;18.74;65.76;101585.53;107317;1257;107150;-61
2023/09/03 01:40:33;;;;;;;15.20;5.30;;;;;;;18.77;65.36;101584.44;107324;1256;97844;-61
2023/09/03 01:43:01;;;;;;;16.30;8.20;;;;;;;18.84;65.22;101580.33;107347;1257;97888;-61
2023/09/03 01:46:09;;;;;;;15.80;7.60;;;;;;;18.88;65.48;101576.13;107356;1255;111899;-62
2023/09/03 01:49:02;;;;;;;15.40;6.80;;;;;;;18.90;65.63;101566.85;107192;1255;109695;-62
2023/09/03 01:51:42;;;;;;;12.60;6.20;;;;;;;18.89;65.34;101564.77;107289;1257;108534;-62
2023/09/03 01:54:28;;;;;;;18.90;5.60;;;;;;;18.90;65.24;101564.49;107197;1256;98477;-61
2023/09/03 01:56:59;;;;;;;12.80;6.00;;;;;;;18.89;65.44;101566.28;107335;1256;97724;-61
2023/09/03 01:59:48;;;;;;;16.50;6.00;;;;;;;18.84;65.41;101561.17;107317;1257;112172;-61
2023/09/03 02:02:18;;;;;;;12.30;5.60;;;;;;;18.80;65.57;101561.40;107228;1257;109322;-61
2023/09/03 02:04:47;;;;;;;19.50;5.90;;;;;;;18.80;65.59;101563.83;107251;1257;108073;-62
2023/09/03 02:07:15;;;;;;;12.20;5.50;;;;;;;18.78;65.50;101561.95;107379;1257;97838;-62
2023/09/03 02:09:43;;;;;;;17.70;5.40;;;;;;;18.81;65.48;101559.73;107228;1257;97927;-60
2023/09/03 02:12:11;;;;;;;13.80;5.60;;;;;;;18.83;65.49;101562.02;107217;1255;112266;-62
2023/09/03 02:14:40;;;;;;;14.90;5.40;;;;;;;18.86;65.42;101556.20;107310;1256;108596;-61
2023/09/03 02:17:09;;;;;;;9.60;4.90;;;;;;;18.90;65.43;101556.11;107319;1257;108104;-62
2023/09/03 02:19:37;;;;;;;19.10;5.20;;;;;;;18.90;65.21;101555.76;107295;1256;97931;-62
2023/09/03 02:22:05;;;;;;;12.90;4.90;;;;;;;18.89;65.26;101560.95;107266;1257;98447;-61
2023/09/03 02:24:33;;;;;;;12.20;5.50;;;;;;;18.86;65.68;101561.10;107377;1256;112177;-63
2023/09/03 02:27:02;;;;;;;12.10;5.70;;;;;;;18.84;65.96;101559.36;107310;1256;108615;-61
2023/09/03 02:29:31;;;;;;;17.00;5.60;;;;;;;18.80;65.70;101560.70;107274;1260;106668;-62
2023/09/03 02:31:59;;;;;;;15.90;6.70;;;;;;;18.77;66.10;101558.06;107180;1257;97876;-62
2023/09/03 02:34:28;;;;;;;14.10;6.00;;;;;;;18.79;65.76;101557.14;107263;1256;97902;-62
2023/09/03 02:36:56;;;;;;;12.90;6.10;;;;;;;18.83;66.09;101559.84;107334;1257;111084;-61
2023/09/03 02:39:24;;;;;;;14.80;6.10;;;;;;;18.79;67.08;101562.84;107352;1257;109265;-61
2023/09/03 02:41:53;;;;;;;13.70;5.60;;;;;;;18.63;67.44;101559.34;107178;1257;106865;-62
2023/09/03 02:44:21;;;;;;;12.70;6.00;;;;;;;18.56;67.39;101556.44;107245;1256;97842;-60
2023/09/03 02:46:49;;;;;;;15.60;6.00;;;;;;;18.54;67.83;101559.56;107162;1256;97829;-62
2023/09/03 02:49:18;;;;;;;13.30;5.30;;;;;;;18.51;68.04;101559.34;107358;1256;111579;-61
2023/09/03 02:51:46;;;;;;;10.80;5.50;;;;;;;18.50;68.24;101561.81;107348;1257;109650;-62
2023/09/03 02:54:15;;;;;;;18.20;6.30;;;;;;;18.49;68.19;101570.05;107319;1256;108284;-60
2023/09/03 02:56:43;;;;;;;9.20;5.10;;;;;;;18.51;68.09;101566.04;107201;1257;97899;-61
2023/09/03 02:59:11;;;;;;;15.30;5.30;;;;;;;18.57;67.96;101560.35;107224;1257;98640;-61
2023/09/03 03:01:42;;;;;;;10.90;5.80;;;;;;;18.62;67.73;101561.39;107382;1254;111960;-61
2023/09/03 03:04:10;;;;;;;15.50;5.90;;;;;;;18.68;67.59;101560.94;107302;1256;109776;-60
2023/09/03 03:06:39;;;;;;;12.60;5.80;;;;;;;18.70;67.48;101561.38;107354;1258;107642;-62
2023/09/03 03:09:07;;;;;;;14.60;5.40;;;;;;;18.71;67.62;101556.43;107312;1257;97854;-62
2023/09/03 03:11:35;;;;;;;12.40;4.90;;;;;;;18.72;67.41;101563.09;107257;1257;97719;-61
2023/09/03 03:14:03;;;;;;;13.00;6.10;;;;;;;18.72;67.49;101567.55;107326;1257;111452;-62
2023/09/03 03:16:34;;;;;;;16.40;5.20;;;;;;;18.70;67.38;101564.20;107324;1257;109994;-61
2023/09/03 03:19:07;;;;;;;19.50;5.30;;;;;;;18.66;67.43;101561.48;107358;1257;107500;-61
2023/09/03 03:21:36;;;;;;;13.80;4.90;;;;;;;18.65;67.58;101565.17;107356;1253;97831;-59
2023/09/03 03:24:05;;;;;;;10.00;5.20;;;;;;;18.64;67.72;101566.87;107201;1260;97900;-59
2023/09/03 03:26:37;;;;;;;15.70;5.60;;;;;;;18.62;67.62;101562.15;107300;1260;112357;-61
2023/09/03 03:29:09;;;;;;;12.90;5.00;;;;;;;18.60;67.55;101559.27;107362;1255;110019;-62
2023/09/03 03:31:43;;;;;;;15.70;5.10;;;;;;;18.58;67.66;101561.83;107366;1259;108920;-60
2023/09/03 03:34:12;;;;;;;16.00;5.40;;;;;;;18.55;67.68;101561.82;107321;1254;97826;-61
2023/09/03 03:36:42;;;;;;;12.30;4.60;;;;;;;18.52;67.79;101565.98;107321;1257;97922;-60
2023/09/03 03:39:10;;;;;;;15.20;5.00;;;;;;;18.48;67.77;101571.11;107222;1254;111929;-62
2023/09/03 03:41:39;;;;;;;12.00;5.50;;;;;;;18.44;67.83;101574.96;107386;1254;110085;-61
2023/09/03 03:44:11;;;;;;;15.30;5.60;;;;;;;18.39;68.10;101568.82;107341;1254;108652;-62
2023/09/03 03:46:40;;;;;;;16.10;5.10;;;;;;;18.33;68.00;101571.34;107258;1257;97888;-61
2023/09/03 03:49:09;;;;;;;16.90;4.60;;;;;;;18.28;68.27;101576.55;107389;1258;97717;-61
2023/09/03 03:51:38;;;;;;;12.70;6.20;;;;;;;18.25;68.22;101577.58;107337;1254;112136;-61
2023/09/03 03:54:07;;;;;;;13.50;4.90;;;;;;;18.22;68.36;101578.98;107287;1257;109712;-61
2023/09/03 03:56:35;;;;;;;10.20;5.90;;;;;;;18.21;68.64;101582.45;107367;1254;107006;-60
2023/09/03 03:59:04;;;;;;;11.30;6.50;;;;;;;18.20;69.11;101586.52;107308;1253;97865;-60
2023/09/03 04:01:32;;;;;;;9.30;4.90;;;;;;;18.17;68.98;101591.59;107180;1257;98376;-60
2023/09/03 04:04:00;;;;;;;9.70;4.60;;;;;;;18.16;69.02;101591.45;107298;1257;112896;-62
2023/09/03 04:06:31;;;;;;;10.20;5.30;;;;;;;18.16;69.22;101587.80;107128;1256;109890;-60
2023/09/03 04:08:59;;;;;;;9.30;5.00;;;;;;;18.18;69.34;101587.33;107248;1257;109367;-61
2023/09/03 04:11:28;;;;;;;14.50;4.90;;;;;;;18.15;69.66;101592.70;107220;1256;98008;-63
2023/09/03 04:13:56;;;;;;;13.60;5.00;;;;;;;18.11;69.62;101593.79;107295;1257;100110;-62
2023/09/03 04:16:25;;;;;;;10.20;5.30;;;;;;;18.10;69.74;101592.59;107241;1257;111309;-62
2023/09/03 04:18:53;;;;;;;12.00;5.50;;;;;;;18.12;69.97;101596.81;107295;1257;109870;-62
2023/09/03 04:21:21;;;;;;;12.40;5.00;;;;;;;18.16;69.93;101599.63;107130;1257;107478;-62
2023/09/03 04:23:50;;;;;;;15.60;5.90;;;;;;;18.22;70.13;101597.90;107271;1259;97891;-61
2023/09/03 04:26:18;;;;;;;13.80;6.20;;;;;;;18.30;70.40;101594.83;107300;1257;98527;-61
2023/09/03 04:28:55;;;;;;;14.70;6.20;;;;;;;18.37;70.28;101590.99;107257;1255;111875;-61
2023/09/03 04:31:23;;;;;;;16.90;5.60;;;;;;;18.44;70.13;101588.75;107265;1257;109088;-61
2023/09/03 04:33:52;;;;;;;15.80;6.60;;;;;;;18.53;70.03;101589.27;107330;1257;108315;-61
2023/09/03 04:36:22;;;;;;;9.20;5.10;;;;;;;18.63;70.09;101586.75;107127;1257;97844;-62
2023/09/03 04:38:50;;;;;;;9.40;5.10;;;;;;;18.72;69.81;101583.18;107255;1256;97733;-62
2023/09/03 04:41:20;;;;;;;20.10;6.10;;;;;;;18.83;69.68;101582.77;107286;1257;111823;-62
2023/09/03 04:44:07;;;;;;;10.70;5.80;;;;;;;18.92;69.51;101588.68;107343;1257;109354;-59
2023/09/03 04:46:39;;;;;;;16.00;6.00;;;;;;;18.99;69.43;101590.59;107275;1257;108175;-63
2023/09/03 04:49:08;;;;;;;9.30;4.60;;;;;;;19.03;69.37;101592.84;107260;1257;97859;-63
2023/09/03 04:51:37;;;;;;;16.40;6.10;;;;;;;18.97;69.75;101593.05;107181;1257;97716;-61
2023/09/03 04:54:06;;;;;;;12.00;5.90;;;;;;;18.89;69.86;101592.79;107344;1257;112035;-60
2023/09/03 04:56:35;;;;;;;8.60;6.30;;;;;;;18.85;70.03;101593.60;107138;1257;109827;-61
2023/09/03 04:59:04;;;;;;;12.10;5.30;;;;;;;18.91;69.83;101588.77;107303;1254;106765;-61
2023/09/03 05:01:33;;;;;;;10.50;5.70;;;;;;;18.98;70.12;101587.25;107345;1257;97832;-60
2023/09/03 05:04:04;;;;;;;10.70;5.00;;;;;;;19.01;70.01;101585.31;107347;1256;99623;-62
2023/09/03 05:06:32;;;;;;;13.10;6.00;;;;;;;19.07;69.77;101584.20;107357;1254;111516;-61
2023/09/03 05:09:01;;;;;;;16.50;6.20;;;;;;;19.21;69.74;101582.67;107215;1254;109888;-61
2023/09/03 05:11:29;;;;;;;14.10;5.10;;;;;;;19.35;69.57;101577.99;107390;1257;108164;-61
2023/09/03 05:13:58;;;;;;;16.50;5.60;;;;;;;19.43;69.16;101577.00;107342;1259;97704;-61
2023/09/03 05:16:28;;;;;;;11.90;5.60;;;;;;;19.51;68.90;101574.18;107345;1257;97806;-63
2023/09/03 05:19:04;;;;;;;17.10;5.60;;;;;;;19.64;68.79;101570.04;107328;1258;112208;-62
2023/09/03 05:21:33;;;;;;;18.30;6.30;;;;;;;19.69;68.64;101571.45;107425;1254;109379;-61
2023/09/03 05:24:03;;;;;;;11.40;5.60;;;;;;;19.70;68.65;101569.16;107236;1257;108406;-63
2023/09/03 05:26:31;;;;;;;13.90;5.60;;;;;;;19.69;68.70;101571.02;107349;1259;97754;-62
2023/09/03 05:29:00;;;;;;;11.80;5.60;;;;;;;19.64;69.17;101568.70;107294;1257;97953;-62
2023/09/03 05:31:30;;;;;;;10.70;5.50;;;;;;;19.58;69.19;101567.10;107348;1256;112225;-62
2023/09/03 05:34:02;;;;;;;17.30;6.10;;;;;;;19.53;69.81;101568.58;107336;1259;108961;-60
2023/09/03 05:36:30;;;;;;;9.60;5.50;;;;;;;19.50;69.69;101566.67;107093;1260;108333;-62
2023/09/03 05:38:58;;;;;;;11.80;6.40;;;;;;;19.52;70.13;101569.91;107248;1254;97829;-63
2023/09/03 05:41:27;;;;;;;13.50;5.60;;;;;;;19.55;70.29;101573.80;107391;1257;98367;-61
2023/09/03 05:43:57;;;;;;;10.90;5.20;;;;;;;19.63;70.26;101573.39;107366;1255;112954;-61
2023/09/03 05:46:26;;;;;;;8.90;4.90;;;;;;;19.76;70.67;101572.89;107319;1254;110197;-61
2023/09/03 05:48:54;;;;;;;9.80;5.30;;;;;;;19.87;70.26;101576.65;107190;1257;107469;-62
2023/09/03 05:51:23;;;;;;;7.60;4.50;;;;;;;20.01;70.18;101578.05;107205;1257;98103;-61
2023/09/03 05:53:51;;;;;;;8.20;4.80;;;;;;;20.11;70.05;101580.35;107255;1254;97864;-61
2023/09/03 05:56:21;;;;;;;10.90;4.80;;;;;;;20.20;70.43;101579.96;107158;1255;111830;-61
2023/09/03 05:58:51;;;;;;;10.60;5.00;;;;;;;20.28;69.88;101584.00;107339;1258;109316;-63
2023/09/03 06:01:20;;;;;;;7.40;4.70;;;;;;;20.35;69.55;101582.46;107312;1255;107615;-63
2023/09/03 06:03:48;;;;;;;11.40;5.00;;;;;;;20.43;69.44;101578.06;107251;1254;98041;-63
2023/09/03 06:06:16;;;;;;;14.80;4.80;;;;;;;20.49;69.76;101576.44;107319;1257;98474;-62
2023/09/03 06:08:45;;;;;;;14.40;4.60;;;;;;;20.51;69.67;101574.52;107341;1257;111232;-61
2023/09/03 06:11:14;;;;;;;11.90;4.70;;;;;;;20.52;69.52;101570.20;107344;1259;108740;-62
2023/09/03 06:13:42;;;;;;;8.20;4.90;;;;;;;20.55;69.31;101573.73;107335;1257;108427;-62
2023/09/03 06:16:10;;;;;;;9.10;5.50;;;;;;;20.58;69.03;101571.91;107376;1258;97829;-61
2023/09/03 06:18:39;;;;;;;11.00;4.90;;;;;;;20.62;68.88;101570.11;107384;1259;97934;-62
2023/09/03 06:21:08;;;;;;;11.70;4.80;;;;;;;20.67;68.57;101567.04;107358;1257;111023;-62
2023/09/03 06:23:36;;;;;;;9.50;4.60;;;;;;;20.72;68.39;101568.92;107355;1260;108960;-61
2023/09/03 06:26:04;;;;;;;12.60;4.30;;;;;;;20.79;68.22;101567.83;107319;1259;106443;-60
2023/09/03 06:28:33;;;;;;;9.00;3.80;;;;;;;20.83;67.92;101565.97;107326;1257;97829;-61
2023/09/03 06:31:02;;;;;;;10.10;4.90;;;;;;;20.92;67.72;101566.19;107379;1258;98042;-61
2023/09/03 06:33:33;;;;;;;8.40;4.30;;;;;;;21.03;67.43;101567.80;107375;1254;111964;-63
2023/09/03 06:36:02;;;;;;;6.80;4.10;;;;;;;21.15;67.18;101568.23;107392;1254;109656;-62
2023/09/03 06:38:31;;;;;;;14.30;3.20;;;;;;;21.28;66.91;101569.54;107280;1256;108297;-63
2023/09/03 06:40:59;;;;;;;6.80;4.00;;;;;;;21.43;65.99;101570.20;107246;1258;97723;-61
2023/09/03 06:43:28;;;;;;;5.90;3.20;;;;;;;21.56;65.43;101569.63;107368;1254;97918;-61
2023/09/03 06:45:56;;;;;;;8.10;3.70;;;;;;;21.67;64.74;101568.95;107357;1257;110330;-62
2023/09/03 06:48:25;;;;;;;5.50;3.60;;;;;;;21.76;64.33;101568.44;107335;1257;109216;-62
2023/09/03 06:50:53;;;;;;;6.50;3.80;;;;;;;21.85;63.91;101571.84;107346;1257;107803;-63
2023/09/03 06:53:21;;;;;;;11.50;3.60;;;;;;;21.90;63.42;101573.64;107296;1260;97727;-63
2023/09/03 06:55:49;;;;;;;6.90;3.70;;;;;;;21.96;63.45;101570.23;107301;1259;97853;-62
2023/09/03 06:58:17;;;;;;;9.10;3.30;;;;;;;22.03;62.85;101572.98;107371;1255;110706;-62
2023/09/03 07:00:46;;;;;;;6.90;5.00;;;;;;;22.08;62.67;101573.90;107315;1257;110319;-61
2023/09/03 07:03:18;;;;;;;6.80;3.30;;;;;;;22.12;61.92;101571.48;107262;1259;108894;-61
2023/09/03 07:05:47;;;;;;;6.00;3.60;;;;;;;22.19;61.89;101574.04;107231;1257;97839;-61
2023/09/03 07:08:15;;;;;;;11.00;5.10;;;;;;;22.27;61.63;101570.92;107288;1259;99021;-61
2023/09/03 07:10:43;;;;;;;9.70;3.30;;;;;;;22.37;61.47;101569.67;107344;1258;111498;-62
2023/09/03 07:13:11;;;;;;;5.60;3.00;;;;;;;22.45;61.49;101565.19;107265;1257;110056;-62
2023/09/03 07:15:40;;;;;;;6.40;3.00;;;;;;;22.53;60.93;101562.69;107232;1257;108228;-62
2023/09/03 07:18:08;;;;;;;10.80;3.60;;;;;;;22.62;60.87;101558.09;107214;1258;97835;-60
2023/09/03 07:20:36;;;;;;;6.80;3.40;;;;;;;22.73;60.72;101558.00;107241;1256;97765;-61
2023/09/03 07:23:04;;;;;;;7.50;3.50;;;;;;;22.80;60.16;101557.91;107285;1257;111261;-61
2023/09/03 07:25:34;;;;;;;8.70;3.30;;;;;;;22.86;60.06;101555.00;107257;1257;109827;-62
2023/09/03 07:28:03;;;;;;;10.50;3.80;;;;;;;22.96;60.08;101556.51;107283;1258;107791;-61
2023/09/03 07:30:31;;;;;;;6.00;3.00;;;;;;;23.07;59.70;101563.60;107260;1257;97841;-63
2023/09/03 07:33:00;;;;;;;7.40;3.20;;;;;;;23.16;59.19;101563.45;107306;1259;98418;-61
2023/09/03 07:35:31;;;;;;;7.50;5.20;;;;;;;23.24;58.59;101561.66;107297;1259;112270;-62
2023/09/03 07:38:00;;;;;;;6.50;3.60;;;;;;;23.35;58.41;101560.22;107289;1257;108614;-61
2023/09/03 07:40:28;;;;;;;10.40;3.00;;;;;;;23.49;58.00;101562.60;107236;1256;108273;-60
2023/09/03 07:42:57;;;;;;;8.70;3.10;;;;;;;23.64;57.74;101567.01;107226;1257;97803;-61
2023/09/03 07:45:25;;;;;;;4.50;3.10;;;;;;;23.79;57.59;101565.28;107290;1258;97830;-61
2023/09/03 07:47:54;;;;;;;7.20;3.00;;;;;;;23.89;56.84;101565.74;107252;1258;111143;-60
2023/09/03 07:50:23;;;;;;;4.70;2.90;;;;;;;23.97;56.71;101559.27;107286;1257;109105;-61
2023/09/03 07:52:51;;;;;;;5.40;3.20;;;;;;;24.11;56.62;101564.88;107218;1259;108315;-62
2023/09/03 07:55:19;;;;;;;4.10;2.90;;;;;;;24.27;56.23;101567.29;107290;1257;97857;-61
2023/09/03 07:57:47;;;;;;;8.10;3.30;;;;;;;24.44;55.72;101566.25;107282;1258;97841;-60
2023/09/03 08:00:16;;;;;;;6.30;3.90;;;;;;;24.65;54.70;101569.45;107269;1260;111949;-61
2023/09/03 08:02:45;;;;;;;6.40;3.20;;;;;;;24.77;54.38;101566.64;107402;1257;109692;-61
2023/09/03 08:05:13;;;;;;;5.40;3.30;;;;;;;24.93;54.03;101562.61;107327;1257;108317;-61
2023/09/03 08:07:41;;;;;;;4.10;2.70;;;;;;;25.19;53.62;101558.10;107206;1263;97823;-61
2023/09/03 08:10:10;;;;;;;4.50;2.60;;;;;;;25.34;50.96;101549.30;107309;1258;98370;-60
2023/09/03 08:12:38;;;;;;;7.80;2.90;;;;;;;25.48;51.49;101540.08;107321;1257;111824;-61
2023/09/03 08:15:08;;;;;;;9.70;2.60;;;;;;;25.75;50.79;101540.14;107349;1257;109638;-60
2023/09/03 08:17:36;;;;;;;4.70;2.90;;;;;;;25.89;50.58;101533.70;107382;1260;107586;-61
2023/09/03 08:20:05;;;;;;;5.90;3.00;;;;;;;26.11;50.78;101535.17;107319;1257;97847;-62
2023/09/03 08:22:35;;;;;;;5.60;2.80;;;;;;;26.35;50.84;101530.73;107323;1257;97800;-61
2023/09/03 08:25:04;;;;;;;4.90;2.60;;;;;;;26.56;49.88;101527.86;107397;1259;110649;-61
2023/09/03 08:27:32;;;;;;;6.70;2.50;;;;;;;26.68;49.00;101531.58;107354;1257;109937;-61
2023/09/03 08:30:00;;;;;;;5.60;3.10;;;;;;;26.78;49.23;101533.25;107389;1260;108335;-61
2023/09/03 08:32:29;;;;;;;6.10;2.90;;;;;;;26.90;48.30;101529.55;107349;1259;97726;-61
2023/09/03 08:34:58;;;;;;;7.60;3.50;;;;;;;26.97;48.64;101527.17;107392;1257;98405;-62
2023/09/03 08:37:28;;;;;;;7.00;3.60;;;;;;;27.07;47.84;101531.80;107392;1260;110777;-61
2023/09/03 08:39:57;;;;;;;5.40;3.10;;;;;;;27.11;48.18;101525.89;107282;1261;109708;-62
2023/09/03 08:42:26;;;;;;;6.10;3.30;;;;;;;27.20;47.90;101524.77;107224;1257;108101;-60
2023/09/03 08:45:17;;;;;;;7.70;3.30;;;;;;;27.37;47.73;101519.53;107376;1257;97837;-62
2023/09/03 08:47:46;;;;;;;6.30;2.90;;;;;;;27.62;47.25;101516.86;107422;1258;97854;-62
2023/09/03 08:50:16;;;;;;;2.70;1.90;;;;;;;27.83;45.18;101511.52;107398;1258;110908;-63
2023/09/03 08:52:44;;;;;;;4.00;2.30;;;;;;;27.95;43.96;101506.89;107405;1257;108248;-62
2023/09/03 08:55:13;;;;;;;4.20;2.10;;;;;;;28.10;44.21;101508.40;107380;1257;108775;-62
2023/09/03 08:57:42;;;;;;;3.80;2.10;;;;;;;28.17;43.43;101508.64;107403;1260;97925;-61
2023/09/03 09:00:10;;;;;;;3.90;2.10;;;;;;;28.19;43.15;101510.10;107407;1259;97845;-61
2023/09/03 09:02:40;;;;;;;3.70;2.60;;;;;;;28.34;43.60;101504.99;107370;1257;111540;-61
2023/09/03 09:05:09;;;;;;;7.10;2.40;;;;;;;28.49;43.39;101505.70;107339;1256;109508;-60
2023/09/03 09:07:39;;;;;;;5.50;2.00;;;;;;;28.59;42.93;101508.55;107369;1256;108589;-61
2023/09/03 09:10:14;;;;;;;4.70;2.50;;;;;;;28.69;41.64;101513.44;107327;1257;98412;-62
2023/09/03 09:12:52;;;;;;;4.20;2.50;;;;;;;28.73;42.19;101510.08;107262;1256;97816;-62
2023/09/03 09:15:20;;;;;;;3.60;2.50;;;;;;;28.89;42.48;101503.45;107368;1259;110414;-61
2023/09/03 09:17:49;;;;;;;7.20;2.30;;;;;;;29.01;40.77;101497.69;107384;1256;109393;-61
2023/09/03 09:20:18;;;;;;;4.90;2.50;;;;;;;29.08;40.63;101499.84;107369;1258;107743;-62
2023/09/03 09:22:49;;;;;;;5.10;2.40;;;;;;;29.31;41.33;101495.15;107373;1259;97885;-60
2023/09/03 09:25:22;;;;;;;4.40;2.30;;;;;;;29.72;41.30;101486.70;107349;1259;97787;-61
2023/09/03 09:27:53;;;;;;;4.20;2.20;;;;;;;30.28;40.64;101477.98;107354;1257;111861;-60
2023/09/03 09:30:24;;;;;;;12.00;2.20;;;;;;;30.92;38.32;101477.42;107360;1257;108765;-61
2023/09/03 09:33:04;;;;;;;8.40;2.90;;;;;;;31.50;36.68;101478.46;107370;1256;107618;-61
2023/09/03 09:35:34;;;;;;;7.40;2.50;;;;;;;31.98;35.80;101482.39;107358;1257;97851;-61
2023/09/03 09:38:07;;;;;;;5.50;2.10;;;;;;;32.35;35.38;101481.18;107410;1257;97802;-61
2023/09/03 09:40:36;;;;;;;4.60;1.60;;;;;;;32.75;34.56;101474.73;107391;1256;111061;-61
2023/09/03 09:43:09;;;;;;;7.60;2.20;;;;;;;33.26;34.14;101471.78;107362;1257;109379;-61
2023/09/03 09:45:48;;;;;;;3.00;1.80;;;;;;;33.90;33.60;101466.00;107322;1258;107471;-61
2023/09/03 09:48:17;;;;;;;6.60;2.50;;;;;;;34.39;32.56;101457.09;107354;1257;97886;-63
2023/09/03 09:50:47;;;;;;;6.80;2.00;;;;;;;34.69;32.19;101460.14;107361;1260;97687;-61
2023/09/03 09:53:34;;;;;;;6.10;2.10;;;;;;;35.05;30.75;101459.21;107311;1258;112208;-62
2023/09/03 09:56:07;;;;;;;2.90;1.80;;;;;;;35.15;31.00;101458.38;106893;1257;574650;-62
2023/09/03 09:58:37;;;;;;;5.70;2.30;;;;;;;35.46;30.43;101454.17;107216;1257;111384;-62
2023/09/03 10:01:08;;;;;;;4.00;2.30;;;;;;;35.63;30.95;101446.96;107350;1257;97845;-61
2023/09/03 10:03:51;;;;;;;6.00;1.90;;;;;;;36.04;30.64;101436.83;107424;1258;98194;-61
2023/09/03 10:06:22;;;;;;;2.80;1.80;;;;;;;36.58;29.65;101436.45;107339;1257;110411;-63
2023/09/03 10:08:54;;;;;;;9.90;2.20;;;;;;;36.91;29.63;101431.38;107340;1258;108450;-61
2023/09/03 10:11:22;;;;;;;7.50;2.50;;;;;;;37.38;29.13;101427.85;107327;1256;109355;-62
2023/09/03 10:13:50;;;;;;;13.10;2.40;;;;;;;37.78;28.34;101425.73;107362;1259;97838;-62
2023/09/03 10:16:19;;;;;;;4.80;2.20;;;;;;;37.68;27.73;101419.09;107317;1256;98402;-62
2023/09/03 10:18:50;;;;;;;4.30;2.20;;;;;;;36.92;27.85;101416.55;107375;1258;110695;-61
2023/09/03 10:21:26;;;;;;;3.40;2.50;;;;;;;36.68;27.89;101415.36;107346;1257;110139;-60
2023/09/03 10:24:17;;;;;;;3.40;1.80;;;;;;;36.72;27.28;101410.27;107325;1256;107365;-61
2023/09/03 10:26:50;;;;;;;6.10;1.80;;;;;;;36.69;28.32;101406.95;107322;1258;97840;-61
2023/09/03 10:29:22;;;;;;;2.60;1.90;;;;;;;37.15;28.20;101401.69;107343;1260;97947;-61
2023/09/03 10:31:52;;;;;;;4.30;1.80;;;;;;;37.72;27.11;101397.48;107367;1256;112202;-62
2023/09/03 10:34:20;;;;;;;1.90;1.30;;;;;;;37.99;27.18;101388.84;107373;1257;110822;-60
2023/09/03 10:37:04;;;;;;;4.10;2.10;;;;;;;38.47;25.87;101386.80;107268;1257;108326;-62
2023/09/03 10:39:34;;;;;;;3.00;1.80;;;;;;;38.70;25.36;101388.02;107342;1258;97988;-61
2023/09/03 10:42:15;;;;;;;2.70;1.20;;;;;;;38.84;25.42;101383.39;107347;1257;97851;-62
2023/09/03 10:44:49;;;;;;;1.90;1.10;;;;;;;39.28;24.12;101374.81;107323;1256;112114;-62
2023/09/03 10:47:18;;;;;;;2.40;1.20;;;;;;;39.45;24.01;101377.02;107328;1258;108370;-61
2023/09/03 10:49:51;;;;;;;1.90;1.30;;;;;;;39.70;23.68;101369.55;107354;1257;107427;-62
2023/09/03 10:52:26;;;;;;;3.90;1.30;;;;;;;39.75;23.21;101371.44;107144;1257;97932;-63
2023/09/03 10:55:20;;;;;;;2.00;1.10;;;;;;;39.73;24.22;101368.51;107291;1257;97715;-62
2023/09/03 10:58:10;;;;;;;4.30;1.10;;;;;;;40.01;23.24;101360.52;107371;1257;111883;-62
2023/09/03 11:00:38;;;;;;;2.40;1.00;;;;;;;40.08;23.58;101359.70;107371;1258;109670;-62
2023/09/03 11:03:18;;;;;;;2.70;1.50;;;;;;;40.48;23.27;101359.71;107315;1258;108258;-63
2023/09/03 11:06:13;;;;;;;3.20;1.10;;;;;;;40.87;22.99;101355.17;107327;1257;97825;-62
2023/09/03 11:08:42;;;;;;;3.60;1.10;;;;;;;41.07;22.50;101352.51;107373;1257;97717;-61
2023/09/03 11:11:18;;;;;;;4.70;1.30;;;;;;;41.40;22.39;101348.35;107364;1259;111349;-61
2023/09/03 11:13:53;;;;;;;4.50;1.40;;;;;;;41.71;21.81;101347.43;107363;1260;109049;-62
2023/09/03 11:16:29;;;;;;;2.00;1.10;;;;;;;41.72;21.24;101340.78;107287;1257;108197;-61
2023/09/03 11:18:58;;;;;;;2.50;1.20;;;;;;;41.78;21.28;101334.36;107173;1256;97926;-62
2023/09/03 11:21:27;;;;;;;1.20;1.10;;;;;;;41.80;20.18;101327.90;107389;1256;98443;-61
2023/09/03 11:24:14;;;;;;;1.40;1.00;;;;;;;41.33;20.87;101322.20;107429;1257;110943;-61
2023/09/03 11:26:43;;;;;;;6.50;1.20;;;;;;;41.16;21.54;101315.66;107328;1260;109656;-61